<?xml version="1.0" encoding="UTF-8" standalone="no" ?>
<gpx xmlns="http://www.topografix.com/GPX/1/1" xmlns:xsi="http://www.w3.org/2001/XMLSchema-instance" xsi:schemaLocation="http://www.topografix.com/GPX/1/1 http://www.topografix.com/GPX/1/1/gpx.xsd" version="1.1" creator="VisuGPX - https://www.visugpx.com">
  <metadata>
    <name>Course à pied le midi</name>
  </metadata>
  <trk>
    <name><![CDATA[Course à pied le midi_1]]></name>
    <trkseg>
      <trkpt lat="48.67303" lon="7.25415">
        <ele>492.9</ele>
        <time>2023-10-13T09:36:29Z</time>
      </trkpt>
      <trkpt lat="48.67305" lon="7.25417">
        <ele>492.8</ele>
        <time>2023-10-13T09:36:30Z</time>
      </trkpt>
      <trkpt lat="48.67309" lon="7.25446">
        <ele>491.4</ele>
        <time>2023-10-13T09:36:39Z</time>
      </trkpt>
      <trkpt lat="48.67308" lon="7.25475">
        <ele>489.7</ele>
        <time>2023-10-13T09:36:48Z</time>
      </trkpt>
      <trkpt lat="48.67306" lon="7.25504">
        <ele>488</ele>
        <time>2023-10-13T09:36:58Z</time>
      </trkpt>
      <trkpt lat="48.67301" lon="7.25531">
        <ele>486.4</ele>
        <time>2023-10-13T09:37:08Z</time>
      </trkpt>
      <trkpt lat="48.67297" lon="7.25558">
        <ele>484.7</ele>
        <time>2023-10-13T09:37:18Z</time>
      </trkpt>
      <trkpt lat="48.67294" lon="7.25585">
        <ele>483.1</ele>
        <time>2023-10-13T09:37:27Z</time>
      </trkpt>
      <trkpt lat="48.67289" lon="7.25612">
        <ele>481.3</ele>
        <time>2023-10-13T09:37:38Z</time>
      </trkpt>
      <trkpt lat="48.67285" lon="7.2564">
        <ele>479.5</ele>
        <time>2023-10-13T09:37:48Z</time>
      </trkpt>
      <trkpt lat="48.67287" lon="7.25668">
        <ele>477.3</ele>
        <time>2023-10-13T09:37:58Z</time>
      </trkpt>
      <trkpt lat="48.67292" lon="7.25695">
        <ele>475.2</ele>
        <time>2023-10-13T09:38:08Z</time>
      </trkpt>
      <trkpt lat="48.67297" lon="7.25722">
        <ele>473.2</ele>
        <time>2023-10-13T09:38:18Z</time>
      </trkpt>
      <trkpt lat="48.67304" lon="7.25749">
        <ele>471.6</ele>
        <time>2023-10-13T09:38:29Z</time>
      </trkpt>
      <trkpt lat="48.67316" lon="7.25771">
        <ele>470.4</ele>
        <time>2023-10-13T09:38:40Z</time>
      </trkpt>
      <trkpt lat="48.67325" lon="7.25795">
        <ele>469.5</ele>
        <time>2023-10-13T09:38:50Z</time>
      </trkpt>
      <trkpt lat="48.6734" lon="7.25809">
        <ele>468.7</ele>
        <time>2023-10-13T09:38:59Z</time>
      </trkpt>
      <trkpt lat="48.67359" lon="7.25811">
        <ele>467.7</ele>
        <time>2023-10-13T09:39:10Z</time>
      </trkpt>
      <trkpt lat="48.67378" lon="7.25812">
        <ele>466.6</ele>
        <time>2023-10-13T09:39:19Z</time>
      </trkpt>
      <trkpt lat="48.67397" lon="7.25813">
        <ele>465.4</ele>
        <time>2023-10-13T09:39:30Z</time>
      </trkpt>
      <trkpt lat="48.67416" lon="7.25817">
        <ele>464.4</ele>
        <time>2023-10-13T09:39:40Z</time>
      </trkpt>
      <trkpt lat="48.67433" lon="7.25824">
        <ele>463.4</ele>
        <time>2023-10-13T09:39:49Z</time>
      </trkpt>
      <trkpt lat="48.67451" lon="7.25834">
        <ele>462.4</ele>
        <time>2023-10-13T09:39:57Z</time>
      </trkpt>
      <trkpt lat="48.67469" lon="7.25842">
        <ele>461.6</ele>
        <time>2023-10-13T09:40:06Z</time>
      </trkpt>
      <trkpt lat="48.67489" lon="7.25847">
        <ele>461.1</ele>
        <time>2023-10-13T09:40:15Z</time>
      </trkpt>
      <trkpt lat="48.67507" lon="7.25857">
        <ele>461.1</ele>
        <time>2023-10-13T09:40:23Z</time>
      </trkpt>
      <trkpt lat="48.67526" lon="7.25863">
        <ele>461.1</ele>
        <time>2023-10-13T09:40:32Z</time>
      </trkpt>
      <trkpt lat="48.67544" lon="7.25863">
        <ele>460.2</ele>
        <time>2023-10-13T09:40:41Z</time>
      </trkpt>
      <trkpt lat="48.67564" lon="7.2587">
        <ele>459.6</ele>
        <time>2023-10-13T09:40:50Z</time>
      </trkpt>
      <trkpt lat="48.67583" lon="7.25873">
        <ele>459.1</ele>
        <time>2023-10-13T09:40:58Z</time>
      </trkpt>
      <trkpt lat="48.67603" lon="7.25872">
        <ele>459</ele>
        <time>2023-10-13T09:41:07Z</time>
      </trkpt>
      <trkpt lat="48.67621" lon="7.25872">
        <ele>459.5</ele>
        <time>2023-10-13T09:41:15Z</time>
      </trkpt>
      <trkpt lat="48.6763" lon="7.25879">
        <ele>460.6</ele>
        <time>2023-10-13T09:41:19Z</time>
      </trkpt>
      <trkpt lat="48.67639" lon="7.25903">
        <ele>462.9</ele>
        <time>2023-10-13T09:41:29Z</time>
      </trkpt>
      <trkpt lat="48.67643" lon="7.2593">
        <ele>465.1</ele>
        <time>2023-10-13T09:41:39Z</time>
      </trkpt>
      <trkpt lat="48.67647" lon="7.25957">
        <ele>466.6</ele>
        <time>2023-10-13T09:41:49Z</time>
      </trkpt>
      <trkpt lat="48.67659" lon="7.25977">
        <ele>468</ele>
        <time>2023-10-13T09:41:58Z</time>
      </trkpt>
      <trkpt lat="48.67678" lon="7.2598">
        <ele>469.8</ele>
        <time>2023-10-13T09:42:08Z</time>
      </trkpt>
      <trkpt lat="48.67697" lon="7.25972">
        <ele>471.2</ele>
        <time>2023-10-13T09:42:18Z</time>
      </trkpt>
      <trkpt lat="48.67709" lon="7.25952">
        <ele>472.1</ele>
        <time>2023-10-13T09:42:27Z</time>
      </trkpt>
      <trkpt lat="48.6772" lon="7.25926">
        <ele>472.7</ele>
        <time>2023-10-13T09:42:36Z</time>
      </trkpt>
      <trkpt lat="48.67731" lon="7.25903">
        <ele>473.2</ele>
        <time>2023-10-13T09:42:45Z</time>
      </trkpt>
      <trkpt lat="48.67746" lon="7.25883">
        <ele>473.8</ele>
        <time>2023-10-13T09:42:53Z</time>
      </trkpt>
      <trkpt lat="48.67763" lon="7.25868">
        <ele>474.3</ele>
        <time>2023-10-13T09:43:01Z</time>
      </trkpt>
      <trkpt lat="48.67779" lon="7.25853">
        <ele>474.8</ele>
        <time>2023-10-13T09:43:08Z</time>
      </trkpt>
      <trkpt lat="48.67797" lon="7.25843">
        <ele>475.3</ele>
        <time>2023-10-13T09:43:15Z</time>
      </trkpt>
      <trkpt lat="48.67815" lon="7.25834">
        <ele>475.7</ele>
        <time>2023-10-13T09:43:23Z</time>
      </trkpt>
      <trkpt lat="48.67835" lon="7.25826">
        <ele>476</ele>
        <time>2023-10-13T09:43:31Z</time>
      </trkpt>
      <trkpt lat="48.67855" lon="7.25822">
        <ele>476.1</ele>
        <time>2023-10-13T09:43:38Z</time>
      </trkpt>
      <trkpt lat="48.67874" lon="7.2582">
        <ele>476.1</ele>
        <time>2023-10-13T09:43:45Z</time>
      </trkpt>
      <trkpt lat="48.67892" lon="7.25818">
        <ele>475.8</ele>
        <time>2023-10-13T09:43:51Z</time>
      </trkpt>
      <trkpt lat="48.67912" lon="7.2582">
        <ele>475</ele>
        <time>2023-10-13T09:43:58Z</time>
      </trkpt>
      <trkpt lat="48.6793" lon="7.25814">
        <ele>473.3</ele>
        <time>2023-10-13T09:44:05Z</time>
      </trkpt>
      <trkpt lat="48.67949" lon="7.25807">
        <ele>471.7</ele>
        <time>2023-10-13T09:44:13Z</time>
      </trkpt>
      <trkpt lat="48.67968" lon="7.25802">
        <ele>470.3</ele>
        <time>2023-10-13T09:44:20Z</time>
      </trkpt>
      <trkpt lat="48.67988" lon="7.258">
        <ele>469.2</ele>
        <time>2023-10-13T09:44:27Z</time>
      </trkpt>
      <trkpt lat="48.68007" lon="7.25795">
        <ele>468.4</ele>
        <time>2023-10-13T09:44:34Z</time>
      </trkpt>
      <trkpt lat="48.68026" lon="7.25789">
        <ele>468.1</ele>
        <time>2023-10-13T09:44:41Z</time>
      </trkpt>
      <trkpt lat="48.68044" lon="7.25786">
        <ele>468.8</ele>
        <time>2023-10-13T09:44:48Z</time>
      </trkpt>
      <trkpt lat="48.6806" lon="7.25781">
        <ele>469.7</ele>
        <time>2023-10-13T09:44:58Z</time>
      </trkpt>
      <trkpt lat="48.68081" lon="7.2578">
        <ele>470.2</ele>
        <time>2023-10-13T09:45:06Z</time>
      </trkpt>
      <trkpt lat="48.68098" lon="7.25776">
        <ele>471.3</ele>
        <time>2023-10-13T09:45:14Z</time>
      </trkpt>
      <trkpt lat="48.68117" lon="7.25775">
        <ele>473.6</ele>
        <time>2023-10-13T09:45:25Z</time>
      </trkpt>
      <trkpt lat="48.68134" lon="7.25767">
        <ele>475.9</ele>
        <time>2023-10-13T09:45:35Z</time>
      </trkpt>
      <trkpt lat="48.68152" lon="7.2576">
        <ele>477.9</ele>
        <time>2023-10-13T09:45:46Z</time>
      </trkpt>
      <trkpt lat="48.68153" lon="7.25758">
        <ele>477.8</ele>
        <time>2023-10-13T09:45:48Z</time>
      </trkpt>
      <trkpt lat="48.68152" lon="7.25758">
        <ele>477.7</ele>
        <time>2023-10-13T09:45:50Z</time>
      </trkpt>
      <trkpt lat="48.68134" lon="7.25769">
        <ele>475.6</ele>
        <time>2023-10-13T09:46:03Z</time>
      </trkpt>
      <trkpt lat="48.68114" lon="7.25778">
        <ele>473.1</ele>
        <time>2023-10-13T09:46:12Z</time>
      </trkpt>
      <trkpt lat="48.68096" lon="7.25784">
        <ele>471</ele>
        <time>2023-10-13T09:46:19Z</time>
      </trkpt>
      <trkpt lat="48.68077" lon="7.25787">
        <ele>470.1</ele>
        <time>2023-10-13T09:46:28Z</time>
      </trkpt>
      <trkpt lat="48.6806" lon="7.25798">
        <ele>469.6</ele>
        <time>2023-10-13T09:46:38Z</time>
      </trkpt>
      <trkpt lat="48.68042" lon="7.25809">
        <ele>468.5</ele>
        <time>2023-10-13T09:46:46Z</time>
      </trkpt>
      <trkpt lat="48.68024" lon="7.25812">
        <ele>468.1</ele>
        <time>2023-10-13T09:46:55Z</time>
      </trkpt>
      <trkpt lat="48.68005" lon="7.25814">
        <ele>468.6</ele>
        <time>2023-10-13T09:47:03Z</time>
      </trkpt>
      <trkpt lat="48.67987" lon="7.25813">
        <ele>469.4</ele>
        <time>2023-10-13T09:47:11Z</time>
      </trkpt>
      <trkpt lat="48.67967" lon="7.25812">
        <ele>470.7</ele>
        <time>2023-10-13T09:47:18Z</time>
      </trkpt>
      <trkpt lat="48.67946" lon="7.25816">
        <ele>472.2</ele>
        <time>2023-10-13T09:47:26Z</time>
      </trkpt>
      <trkpt lat="48.67926" lon="7.25818">
        <ele>474</ele>
        <time>2023-10-13T09:47:35Z</time>
      </trkpt>
      <trkpt lat="48.67907" lon="7.25819">
        <ele>475.4</ele>
        <time>2023-10-13T09:47:42Z</time>
      </trkpt>
      <trkpt lat="48.67888" lon="7.25822">
        <ele>476</ele>
        <time>2023-10-13T09:47:49Z</time>
      </trkpt>
      <trkpt lat="48.6787" lon="7.25827">
        <ele>476.1</ele>
        <time>2023-10-13T09:47:57Z</time>
      </trkpt>
      <trkpt lat="48.67851" lon="7.25832">
        <ele>476.1</ele>
        <time>2023-10-13T09:48:04Z</time>
      </trkpt>
      <trkpt lat="48.67834" lon="7.25838">
        <ele>475.9</ele>
        <time>2023-10-13T09:48:12Z</time>
      </trkpt>
      <trkpt lat="48.67817" lon="7.25847">
        <ele>475.6</ele>
        <time>2023-10-13T09:48:19Z</time>
      </trkpt>
      <trkpt lat="48.67801" lon="7.25861">
        <ele>475.2</ele>
        <time>2023-10-13T09:48:26Z</time>
      </trkpt>
      <trkpt lat="48.67784" lon="7.25876">
        <ele>474.7</ele>
        <time>2023-10-13T09:48:33Z</time>
      </trkpt>
      <trkpt lat="48.67769" lon="7.25893">
        <ele>474.2</ele>
        <time>2023-10-13T09:48:41Z</time>
      </trkpt>
      <trkpt lat="48.67753" lon="7.25909">
        <ele>473.7</ele>
        <time>2023-10-13T09:48:49Z</time>
      </trkpt>
      <trkpt lat="48.6774" lon="7.2593">
        <ele>473.1</ele>
        <time>2023-10-13T09:48:57Z</time>
      </trkpt>
      <trkpt lat="48.67728" lon="7.25952">
        <ele>472.6</ele>
        <time>2023-10-13T09:49:03Z</time>
      </trkpt>
      <trkpt lat="48.67715" lon="7.25974">
        <ele>472.1</ele>
        <time>2023-10-13T09:49:11Z</time>
      </trkpt>
      <trkpt lat="48.67697" lon="7.25983">
        <ele>471</ele>
        <time>2023-10-13T09:49:19Z</time>
      </trkpt>
      <trkpt lat="48.67677" lon="7.25987">
        <ele>469.4</ele>
        <time>2023-10-13T09:49:26Z</time>
      </trkpt>
      <trkpt lat="48.67666" lon="7.25981">
        <ele>468.4</ele>
        <time>2023-10-13T09:49:31Z</time>
      </trkpt>
      <trkpt lat="48.67656" lon="7.25956">
        <ele>466.9</ele>
        <time>2023-10-13T09:49:40Z</time>
      </trkpt>
      <trkpt lat="48.6765" lon="7.25931">
        <ele>465.4</ele>
        <time>2023-10-13T09:49:47Z</time>
      </trkpt>
      <trkpt lat="48.67641" lon="7.25903">
        <ele>463.2</ele>
        <time>2023-10-13T09:49:53Z</time>
      </trkpt>
      <trkpt lat="48.67625" lon="7.25887">
        <ele>460.7</ele>
        <time>2023-10-13T09:49:58Z</time>
      </trkpt>
      <trkpt lat="48.67605" lon="7.25884">
        <ele>459</ele>
        <time>2023-10-13T09:50:05Z</time>
      </trkpt>
      <trkpt lat="48.67586" lon="7.2588">
        <ele>459</ele>
        <time>2023-10-13T09:50:12Z</time>
      </trkpt>
      <trkpt lat="48.67566" lon="7.25874">
        <ele>459.5</ele>
        <time>2023-10-13T09:50:22Z</time>
      </trkpt>
      <trkpt lat="48.67548" lon="7.25872">
        <ele>460</ele>
        <time>2023-10-13T09:50:32Z</time>
      </trkpt>
      <trkpt lat="48.67536" lon="7.25894">
        <ele>461.4</ele>
        <time>2023-10-13T09:50:41Z</time>
      </trkpt>
      <trkpt lat="48.67523" lon="7.25901">
        <ele>462.6</ele>
        <time>2023-10-13T09:50:50Z</time>
      </trkpt>
      <trkpt lat="48.67507" lon="7.25914">
        <ele>465.5</ele>
        <time>2023-10-13T09:51:00Z</time>
      </trkpt>
      <trkpt lat="48.67492" lon="7.2593">
        <ele>468.9</ele>
        <time>2023-10-13T09:51:10Z</time>
      </trkpt>
      <trkpt lat="48.6749" lon="7.25931">
        <ele>469.3</ele>
        <time>2023-10-13T09:51:11Z</time>
      </trkpt>
      <trkpt lat="48.67471" lon="7.25927">
        <ele>472.6</ele>
        <time>2023-10-13T09:51:23Z</time>
      </trkpt>
      <trkpt lat="48.67461" lon="7.25921">
        <ele>473.9</ele>
        <time>2023-10-13T09:51:30Z</time>
      </trkpt>
      <trkpt lat="48.67442" lon="7.25916">
        <ele>476.1</ele>
        <time>2023-10-13T09:51:40Z</time>
      </trkpt>
      <trkpt lat="48.67424" lon="7.25906">
        <ele>477.9</ele>
        <time>2023-10-13T09:51:49Z</time>
      </trkpt>
      <trkpt lat="48.67406" lon="7.25901">
        <ele>479.5</ele>
        <time>2023-10-13T09:51:59Z</time>
      </trkpt>
      <trkpt lat="48.67387" lon="7.25896">
        <ele>481</ele>
        <time>2023-10-13T09:52:09Z</time>
      </trkpt>
      <trkpt lat="48.67368" lon="7.25886">
        <ele>482.5</ele>
        <time>2023-10-13T09:52:19Z</time>
      </trkpt>
      <trkpt lat="48.6735" lon="7.25875">
        <ele>484.4</ele>
        <time>2023-10-13T09:52:28Z</time>
      </trkpt>
      <trkpt lat="48.67331" lon="7.2587">
        <ele>486.5</ele>
        <time>2023-10-13T09:52:36Z</time>
      </trkpt>
      <trkpt lat="48.67313" lon="7.25855">
        <ele>488.1</ele>
        <time>2023-10-13T09:52:45Z</time>
      </trkpt>
      <trkpt lat="48.67298" lon="7.25835">
        <ele>489.2</ele>
        <time>2023-10-13T09:52:52Z</time>
      </trkpt>
      <trkpt lat="48.67285" lon="7.25815">
        <ele>490.3</ele>
        <time>2023-10-13T09:53:00Z</time>
      </trkpt>
      <trkpt lat="48.67275" lon="7.25789">
        <ele>491.4</ele>
        <time>2023-10-13T09:53:07Z</time>
      </trkpt>
      <trkpt lat="48.67262" lon="7.25766">
        <ele>492.7</ele>
        <time>2023-10-13T09:53:16Z</time>
      </trkpt>
      <trkpt lat="48.67257" lon="7.25736">
        <ele>494.8</ele>
        <time>2023-10-13T09:53:26Z</time>
      </trkpt>
      <trkpt lat="48.67252" lon="7.25707">
        <ele>496.4</ele>
        <time>2023-10-13T09:53:34Z</time>
      </trkpt>
      <trkpt lat="48.67244" lon="7.2568">
        <ele>497.9</ele>
        <time>2023-10-13T09:53:44Z</time>
      </trkpt>
      <trkpt lat="48.67235" lon="7.25654">
        <ele>499.6</ele>
        <time>2023-10-13T09:53:54Z</time>
      </trkpt>
      <trkpt lat="48.67233" lon="7.25626">
        <ele>501.3</ele>
        <time>2023-10-13T09:54:04Z</time>
      </trkpt>
      <trkpt lat="48.67237" lon="7.25597">
        <ele>503.3</ele>
        <time>2023-10-13T09:54:13Z</time>
      </trkpt>
      <trkpt lat="48.67246" lon="7.25568">
        <ele>501.8</ele>
        <time>2023-10-13T09:54:21Z</time>
      </trkpt>
      <trkpt lat="48.67256" lon="7.25541">
        <ele>500.1</ele>
        <time>2023-10-13T09:54:27Z</time>
      </trkpt>
      <trkpt lat="48.67268" lon="7.25519">
        <ele>498.9</ele>
        <time>2023-10-13T09:54:33Z</time>
      </trkpt>
      <trkpt lat="48.6728" lon="7.25495">
        <ele>497.5</ele>
        <time>2023-10-13T09:54:39Z</time>
      </trkpt>
      <trkpt lat="48.67291" lon="7.25473">
        <ele>496.2</ele>
        <time>2023-10-13T09:54:45Z</time>
      </trkpt>
      <trkpt lat="48.67302" lon="7.25451">
        <ele>495</ele>
        <time>2023-10-13T09:54:53Z</time>
      </trkpt>
      <trkpt lat="48.67308" lon="7.25435">
        <ele>494.3</ele>
        <time>2023-10-13T09:55:00Z</time>
      </trkpt>
      <trkpt lat="48.67307" lon="7.2542">
        <ele>493.8</ele>
        <time>2023-10-13T09:58:15Z</time>
      </trkpt>
      <trkpt lat="48.67306" lon="7.25414">
        <ele>493.7</ele>
        <time>2023-10-13T09:58:17Z</time>
      </trkpt>
      <trkpt lat="48.67304" lon="7.25407">
        <ele>493.5</ele>
        <time>2023-10-13T09:58:19Z</time>
      </trkpt>
      <trkpt lat="48.67299" lon="7.25399">
        <ele>493.7</ele>
        <time>2023-10-13T09:58:22Z</time>
      </trkpt>
      <trkpt lat="48.67279" lon="7.25399">
        <ele>494.3</ele>
        <time>2023-10-13T09:58:31Z</time>
      </trkpt>
      <trkpt lat="48.6726" lon="7.25408">
        <ele>495.2</ele>
        <time>2023-10-13T09:58:41Z</time>
      </trkpt>
      <trkpt lat="48.67245" lon="7.25421">
        <ele>496.6</ele>
        <time>2023-10-13T09:58:50Z</time>
      </trkpt>
      <trkpt lat="48.67228" lon="7.25433">
        <ele>498.4</ele>
        <time>2023-10-13T09:58:58Z</time>
      </trkpt>
      <trkpt lat="48.67212" lon="7.25448">
        <ele>499.9</ele>
        <time>2023-10-13T09:59:08Z</time>
      </trkpt>
      <trkpt lat="48.67197" lon="7.25465">
        <ele>500.7</ele>
        <time>2023-10-13T09:59:17Z</time>
      </trkpt>
      <trkpt lat="48.67188" lon="7.25491">
        <ele>502.6</ele>
        <time>2023-10-13T09:59:25Z</time>
      </trkpt>
      <trkpt lat="48.67176" lon="7.25516">
        <ele>504.2</ele>
        <time>2023-10-13T09:59:33Z</time>
      </trkpt>
      <trkpt lat="48.67169" lon="7.2553">
        <ele>505</ele>
        <time>2023-10-13T09:59:37Z</time>
      </trkpt>
      <trkpt lat="48.67158" lon="7.25556">
        <ele>507</ele>
        <time>2023-10-13T09:59:43Z</time>
      </trkpt>
      <trkpt lat="48.67146" lon="7.25581">
        <ele>508.5</ele>
        <time>2023-10-13T09:59:49Z</time>
      </trkpt>
      <trkpt lat="48.6713" lon="7.25603">
        <ele>508.7</ele>
        <time>2023-10-13T09:59:55Z</time>
      </trkpt>
      <trkpt lat="48.67113" lon="7.2562">
        <ele>509</ele>
        <time>2023-10-13T10:00:01Z</time>
      </trkpt>
      <trkpt lat="48.67096" lon="7.25638">
        <ele>509.1</ele>
        <time>2023-10-13T10:00:06Z</time>
      </trkpt>
      <trkpt lat="48.6708" lon="7.25653">
        <ele>509.2</ele>
        <time>2023-10-13T10:00:11Z</time>
      </trkpt>
      <trkpt lat="48.67064" lon="7.25669">
        <ele>509.3</ele>
        <time>2023-10-13T10:00:16Z</time>
      </trkpt>
      <trkpt lat="48.67049" lon="7.25691">
        <ele>509.1</ele>
        <time>2023-10-13T10:00:21Z</time>
      </trkpt>
      <trkpt lat="48.67038" lon="7.25715">
        <ele>508.9</ele>
        <time>2023-10-13T10:00:25Z</time>
      </trkpt>
      <trkpt lat="48.67025" lon="7.25738">
        <ele>508.9</ele>
        <time>2023-10-13T10:00:29Z</time>
      </trkpt>
      <trkpt lat="48.67012" lon="7.25759">
        <ele>508.9</ele>
        <time>2023-10-13T10:00:33Z</time>
      </trkpt>
      <trkpt lat="48.66999" lon="7.25783">
        <ele>508.9</ele>
        <time>2023-10-13T10:00:38Z</time>
      </trkpt>
      <trkpt lat="48.66985" lon="7.25809">
        <ele>508.9</ele>
        <time>2023-10-13T10:00:43Z</time>
      </trkpt>
      <trkpt lat="48.66972" lon="7.25831">
        <ele>508.9</ele>
        <time>2023-10-13T10:00:47Z</time>
      </trkpt>
      <trkpt lat="48.66961" lon="7.25852">
        <ele>509</ele>
        <time>2023-10-13T10:00:51Z</time>
      </trkpt>
      <trkpt lat="48.66947" lon="7.25874">
        <ele>509.1</ele>
        <time>2023-10-13T10:00:56Z</time>
      </trkpt>
      <trkpt lat="48.66935" lon="7.25899">
        <ele>509.2</ele>
        <time>2023-10-13T10:01:01Z</time>
      </trkpt>
      <trkpt lat="48.66918" lon="7.25922">
        <ele>509.5</ele>
        <time>2023-10-13T10:01:06Z</time>
      </trkpt>
      <trkpt lat="48.66904" lon="7.25941">
        <ele>509.7</ele>
        <time>2023-10-13T10:01:11Z</time>
      </trkpt>
      <trkpt lat="48.66887" lon="7.2596">
        <ele>510</ele>
        <time>2023-10-13T10:01:18Z</time>
      </trkpt>
      <trkpt lat="48.66868" lon="7.25973">
        <ele>510.4</ele>
        <time>2023-10-13T10:01:24Z</time>
      </trkpt>
      <trkpt lat="48.6685" lon="7.25982">
        <ele>510.8</ele>
        <time>2023-10-13T10:01:29Z</time>
      </trkpt>
      <trkpt lat="48.66832" lon="7.25989">
        <ele>511</ele>
        <time>2023-10-13T10:01:34Z</time>
      </trkpt>
      <trkpt lat="48.66812" lon="7.2599">
        <ele>511.3</ele>
        <time>2023-10-13T10:01:39Z</time>
      </trkpt>
      <trkpt lat="48.66791" lon="7.25988">
        <ele>511.7</ele>
        <time>2023-10-13T10:01:44Z</time>
      </trkpt>
      <trkpt lat="48.66771" lon="7.25987">
        <ele>512</ele>
        <time>2023-10-13T10:01:49Z</time>
      </trkpt>
      <trkpt lat="48.66753" lon="7.25986">
        <ele>512.2</ele>
        <time>2023-10-13T10:01:54Z</time>
      </trkpt>
      <trkpt lat="48.66733" lon="7.25986">
        <ele>512.7</ele>
        <time>2023-10-13T10:01:59Z</time>
      </trkpt>
      <trkpt lat="48.66712" lon="7.25991">
        <ele>513.2</ele>
        <time>2023-10-13T10:02:04Z</time>
      </trkpt>
      <trkpt lat="48.66691" lon="7.25997">
        <ele>513.7</ele>
        <time>2023-10-13T10:02:09Z</time>
      </trkpt>
      <trkpt lat="48.66672" lon="7.25999">
        <ele>514</ele>
        <time>2023-10-13T10:02:14Z</time>
      </trkpt>
      <trkpt lat="48.66654" lon="7.2601">
        <ele>514.3</ele>
        <time>2023-10-13T10:02:18Z</time>
      </trkpt>
      <trkpt lat="48.66635" lon="7.26019">
        <ele>514.6</ele>
        <time>2023-10-13T10:02:22Z</time>
      </trkpt>
      <trkpt lat="48.66615" lon="7.2603">
        <ele>515</ele>
        <time>2023-10-13T10:02:27Z</time>
      </trkpt>
      <trkpt lat="48.66596" lon="7.26043">
        <ele>515.3</ele>
        <time>2023-10-13T10:02:33Z</time>
      </trkpt>
      <trkpt lat="48.66579" lon="7.26057">
        <ele>515.6</ele>
        <time>2023-10-13T10:02:38Z</time>
      </trkpt>
      <trkpt lat="48.66563" lon="7.26074">
        <ele>515.9</ele>
        <time>2023-10-13T10:02:43Z</time>
      </trkpt>
      <trkpt lat="48.66547" lon="7.26092">
        <ele>516.2</ele>
        <time>2023-10-13T10:02:48Z</time>
      </trkpt>
      <trkpt lat="48.66529" lon="7.2611">
        <ele>516.6</ele>
        <time>2023-10-13T10:02:53Z</time>
      </trkpt>
      <trkpt lat="48.66511" lon="7.26129">
        <ele>516.9</ele>
        <time>2023-10-13T10:02:58Z</time>
      </trkpt>
      <trkpt lat="48.66497" lon="7.26148">
        <ele>517.3</ele>
        <time>2023-10-13T10:03:02Z</time>
      </trkpt>
      <trkpt lat="48.66482" lon="7.26169">
        <ele>517.7</ele>
        <time>2023-10-13T10:03:07Z</time>
      </trkpt>
      <trkpt lat="48.66467" lon="7.26187">
        <ele>518.2</ele>
        <time>2023-10-13T10:03:11Z</time>
      </trkpt>
      <trkpt lat="48.66452" lon="7.26205">
        <ele>518.7</ele>
        <time>2023-10-13T10:03:15Z</time>
      </trkpt>
      <trkpt lat="48.66435" lon="7.26218">
        <ele>519.2</ele>
        <time>2023-10-13T10:03:19Z</time>
      </trkpt>
      <trkpt lat="48.66418" lon="7.26228">
        <ele>519.6</ele>
        <time>2023-10-13T10:03:23Z</time>
      </trkpt>
      <trkpt lat="48.66396" lon="7.26235">
        <ele>519.7</ele>
        <time>2023-10-13T10:03:28Z</time>
      </trkpt>
      <trkpt lat="48.66378" lon="7.26241">
        <ele>519.8</ele>
        <time>2023-10-13T10:03:33Z</time>
      </trkpt>
      <trkpt lat="48.6636" lon="7.26239">
        <ele>520</ele>
        <time>2023-10-13T10:03:37Z</time>
      </trkpt>
      <trkpt lat="48.6634" lon="7.26241">
        <ele>520.3</ele>
        <time>2023-10-13T10:03:41Z</time>
      </trkpt>
      <trkpt lat="48.6632" lon="7.26241">
        <ele>520.7</ele>
        <time>2023-10-13T10:03:46Z</time>
      </trkpt>
      <trkpt lat="48.663" lon="7.26238">
        <ele>520.9</ele>
        <time>2023-10-13T10:03:50Z</time>
      </trkpt>
      <trkpt lat="48.66279" lon="7.26236">
        <ele>521.3</ele>
        <time>2023-10-13T10:03:54Z</time>
      </trkpt>
      <trkpt lat="48.6626" lon="7.26229">
        <ele>521.6</ele>
        <time>2023-10-13T10:03:59Z</time>
      </trkpt>
      <trkpt lat="48.66239" lon="7.26227">
        <ele>521.8</ele>
        <time>2023-10-13T10:04:04Z</time>
      </trkpt>
      <trkpt lat="48.66217" lon="7.26227">
        <ele>522.1</ele>
        <time>2023-10-13T10:04:09Z</time>
      </trkpt>
      <trkpt lat="48.66198" lon="7.26224">
        <ele>522.2</ele>
        <time>2023-10-13T10:04:13Z</time>
      </trkpt>
      <trkpt lat="48.66178" lon="7.26227">
        <ele>522.4</ele>
        <time>2023-10-13T10:04:18Z</time>
      </trkpt>
      <trkpt lat="48.66158" lon="7.26238">
        <ele>522.3</ele>
        <time>2023-10-13T10:04:23Z</time>
      </trkpt>
      <trkpt lat="48.66138" lon="7.26248">
        <ele>522.3</ele>
        <time>2023-10-13T10:04:28Z</time>
      </trkpt>
      <trkpt lat="48.66117" lon="7.26255">
        <ele>522.9</ele>
        <time>2023-10-13T10:04:33Z</time>
      </trkpt>
      <trkpt lat="48.66095" lon="7.26263">
        <ele>523.5</ele>
        <time>2023-10-13T10:04:38Z</time>
      </trkpt>
      <trkpt lat="48.66075" lon="7.26268">
        <ele>524</ele>
        <time>2023-10-13T10:04:42Z</time>
      </trkpt>
      <trkpt lat="48.66061" lon="7.26276">
        <ele>524.4</ele>
        <time>2023-10-13T10:04:45Z</time>
      </trkpt>
      <trkpt lat="48.66044" lon="7.26287">
        <ele>525.2</ele>
        <time>2023-10-13T10:04:48Z</time>
      </trkpt>
      <trkpt lat="48.66038" lon="7.26294">
        <ele>525.6</ele>
        <time>2023-10-13T10:04:50Z</time>
      </trkpt>
      <trkpt lat="48.66054" lon="7.26278">
        <ele>524.7</ele>
        <time>2023-10-13T10:04:57Z</time>
      </trkpt>
      <trkpt lat="48.66058" lon="7.26276">
        <ele>524.5</ele>
        <time>2023-10-13T10:04:58Z</time>
      </trkpt>
      <trkpt lat="48.66078" lon="7.26269">
        <ele>523.9</ele>
        <time>2023-10-13T10:05:03Z</time>
      </trkpt>
      <trkpt lat="48.66086" lon="7.26265">
        <ele>523.8</ele>
        <time>2023-10-13T10:05:05Z</time>
      </trkpt>
      <trkpt lat="48.66105" lon="7.26256">
        <ele>523.2</ele>
        <time>2023-10-13T10:05:10Z</time>
      </trkpt>
      <trkpt lat="48.66126" lon="7.26246">
        <ele>522.6</ele>
        <time>2023-10-13T10:05:15Z</time>
      </trkpt>
      <trkpt lat="48.6614" lon="7.26236">
        <ele>522.3</ele>
        <time>2023-10-13T10:05:19Z</time>
      </trkpt>
      <trkpt lat="48.66157" lon="7.26225">
        <ele>522.3</ele>
        <time>2023-10-13T10:05:24Z</time>
      </trkpt>
      <trkpt lat="48.66178" lon="7.26223">
        <ele>522.3</ele>
        <time>2023-10-13T10:05:29Z</time>
      </trkpt>
      <trkpt lat="48.66197" lon="7.26226">
        <ele>522.2</ele>
        <time>2023-10-13T10:05:34Z</time>
      </trkpt>
      <trkpt lat="48.66213" lon="7.26225">
        <ele>522.1</ele>
        <time>2023-10-13T10:05:38Z</time>
      </trkpt>
      <trkpt lat="48.66234" lon="7.26232">
        <ele>521.9</ele>
        <time>2023-10-13T10:05:43Z</time>
      </trkpt>
      <trkpt lat="48.66253" lon="7.26237">
        <ele>521.6</ele>
        <time>2023-10-13T10:05:47Z</time>
      </trkpt>
      <trkpt lat="48.66272" lon="7.26239">
        <ele>521.3</ele>
        <time>2023-10-13T10:05:51Z</time>
      </trkpt>
      <trkpt lat="48.66281" lon="7.26239">
        <ele>521.2</ele>
        <time>2023-10-13T10:05:53Z</time>
      </trkpt>
      <trkpt lat="48.663" lon="7.26238">
        <ele>520.9</ele>
        <time>2023-10-13T10:05:57Z</time>
      </trkpt>
      <trkpt lat="48.66322" lon="7.26235">
        <ele>520.6</ele>
        <time>2023-10-13T10:06:02Z</time>
      </trkpt>
      <trkpt lat="48.6634" lon="7.26236">
        <ele>520.2</ele>
        <time>2023-10-13T10:06:06Z</time>
      </trkpt>
      <trkpt lat="48.66363" lon="7.26234">
        <ele>519.9</ele>
        <time>2023-10-13T10:06:11Z</time>
      </trkpt>
      <trkpt lat="48.66377" lon="7.26231">
        <ele>519.7</ele>
        <time>2023-10-13T10:06:14Z</time>
      </trkpt>
      <trkpt lat="48.66396" lon="7.26226">
        <ele>519.7</ele>
        <time>2023-10-13T10:06:18Z</time>
      </trkpt>
      <trkpt lat="48.66405" lon="7.26221">
        <ele>519.7</ele>
        <time>2023-10-13T10:06:20Z</time>
      </trkpt>
      <trkpt lat="48.66422" lon="7.26209">
        <ele>519.3</ele>
        <time>2023-10-13T10:06:24Z</time>
      </trkpt>
      <trkpt lat="48.6644" lon="7.26194">
        <ele>518.8</ele>
        <time>2023-10-13T10:06:29Z</time>
      </trkpt>
      <trkpt lat="48.66455" lon="7.2618">
        <ele>518.4</ele>
        <time>2023-10-13T10:06:33Z</time>
      </trkpt>
      <trkpt lat="48.66472" lon="7.26163">
        <ele>517.8</ele>
        <time>2023-10-13T10:06:38Z</time>
      </trkpt>
      <trkpt lat="48.6649" lon="7.26143">
        <ele>517.4</ele>
        <time>2023-10-13T10:06:43Z</time>
      </trkpt>
      <trkpt lat="48.66505" lon="7.26123">
        <ele>517</ele>
        <time>2023-10-13T10:06:48Z</time>
      </trkpt>
      <trkpt lat="48.66512" lon="7.26116">
        <ele>516.8</ele>
        <time>2023-10-13T10:06:50Z</time>
      </trkpt>
      <trkpt lat="48.66529" lon="7.26097">
        <ele>516.5</ele>
        <time>2023-10-13T10:06:55Z</time>
      </trkpt>
      <trkpt lat="48.66545" lon="7.26081">
        <ele>516.1</ele>
        <time>2023-10-13T10:07:00Z</time>
      </trkpt>
      <trkpt lat="48.66548" lon="7.26078">
        <ele>516.1</ele>
        <time>2023-10-13T10:07:01Z</time>
      </trkpt>
      <trkpt lat="48.66558" lon="7.2607">
        <ele>515.9</ele>
        <time>2023-10-13T10:07:04Z</time>
      </trkpt>
      <trkpt lat="48.66576" lon="7.26053">
        <ele>515.6</ele>
        <time>2023-10-13T10:07:10Z</time>
      </trkpt>
      <trkpt lat="48.66595" lon="7.26037">
        <ele>515.3</ele>
        <time>2023-10-13T10:07:15Z</time>
      </trkpt>
      <trkpt lat="48.66615" lon="7.26024">
        <ele>514.9</ele>
        <time>2023-10-13T10:07:20Z</time>
      </trkpt>
      <trkpt lat="48.66635" lon="7.26013">
        <ele>514.6</ele>
        <time>2023-10-13T10:07:25Z</time>
      </trkpt>
      <trkpt lat="48.66644" lon="7.26009">
        <ele>514.4</ele>
        <time>2023-10-13T10:07:27Z</time>
      </trkpt>
      <trkpt lat="48.66664" lon="7.26002">
        <ele>514.1</ele>
        <time>2023-10-13T10:07:31Z</time>
      </trkpt>
      <trkpt lat="48.66683" lon="7.25998">
        <ele>513.8</ele>
        <time>2023-10-13T10:07:35Z</time>
      </trkpt>
      <trkpt lat="48.66701" lon="7.25994">
        <ele>513.4</ele>
        <time>2023-10-13T10:07:39Z</time>
      </trkpt>
      <trkpt lat="48.66719" lon="7.25992">
        <ele>513</ele>
        <time>2023-10-13T10:07:44Z</time>
      </trkpt>
      <trkpt lat="48.66737" lon="7.25992">
        <ele>512.6</ele>
        <time>2023-10-13T10:07:48Z</time>
      </trkpt>
      <trkpt lat="48.66756" lon="7.25993">
        <ele>512.2</ele>
        <time>2023-10-13T10:07:52Z</time>
      </trkpt>
      <trkpt lat="48.66777" lon="7.25994">
        <ele>511.9</ele>
        <time>2023-10-13T10:07:57Z</time>
      </trkpt>
      <trkpt lat="48.66796" lon="7.25992">
        <ele>511.6</ele>
        <time>2023-10-13T10:08:01Z</time>
      </trkpt>
      <trkpt lat="48.66805" lon="7.25989">
        <ele>511.5</ele>
        <time>2023-10-13T10:08:03Z</time>
      </trkpt>
      <trkpt lat="48.66826" lon="7.25985">
        <ele>511.1</ele>
        <time>2023-10-13T10:08:08Z</time>
      </trkpt>
      <trkpt lat="48.66831" lon="7.25983">
        <ele>511</ele>
        <time>2023-10-13T10:08:09Z</time>
      </trkpt>
      <trkpt lat="48.6684" lon="7.25978">
        <ele>510.9</ele>
        <time>2023-10-13T10:08:11Z</time>
      </trkpt>
      <trkpt lat="48.6686" lon="7.25966">
        <ele>510.5</ele>
        <time>2023-10-13T10:08:16Z</time>
      </trkpt>
      <trkpt lat="48.66875" lon="7.25951">
        <ele>510.2</ele>
        <time>2023-10-13T10:08:20Z</time>
      </trkpt>
      <trkpt lat="48.66892" lon="7.25933">
        <ele>509.9</ele>
        <time>2023-10-13T10:08:24Z</time>
      </trkpt>
      <trkpt lat="48.66908" lon="7.25918">
        <ele>509.6</ele>
        <time>2023-10-13T10:08:28Z</time>
      </trkpt>
      <trkpt lat="48.66924" lon="7.25898">
        <ele>509.3</ele>
        <time>2023-10-13T10:08:33Z</time>
      </trkpt>
      <trkpt lat="48.66937" lon="7.25878">
        <ele>509.2</ele>
        <time>2023-10-13T10:08:37Z</time>
      </trkpt>
      <trkpt lat="48.66939" lon="7.25873">
        <ele>509.1</ele>
        <time>2023-10-13T10:08:38Z</time>
      </trkpt>
      <trkpt lat="48.66947" lon="7.25862">
        <ele>509.1</ele>
        <time>2023-10-13T10:08:41Z</time>
      </trkpt>
      <trkpt lat="48.6696" lon="7.25842">
        <ele>509</ele>
        <time>2023-10-13T10:08:50Z</time>
      </trkpt>
      <trkpt lat="48.66975" lon="7.25826">
        <ele>508.9</ele>
        <time>2023-10-13T10:08:59Z</time>
      </trkpt>
      <trkpt lat="48.66987" lon="7.25802">
        <ele>508.9</ele>
        <time>2023-10-13T10:09:08Z</time>
      </trkpt>
      <trkpt lat="48.66999" lon="7.25777">
        <ele>508.9</ele>
        <time>2023-10-13T10:09:16Z</time>
      </trkpt>
      <trkpt lat="48.67012" lon="7.25752">
        <ele>508.9</ele>
        <time>2023-10-13T10:09:23Z</time>
      </trkpt>
      <trkpt lat="48.67023" lon="7.25726">
        <ele>508.9</ele>
        <time>2023-10-13T10:09:30Z</time>
      </trkpt>
      <trkpt lat="48.67036" lon="7.25705">
        <ele>508.9</ele>
        <time>2023-10-13T10:09:37Z</time>
      </trkpt>
      <trkpt lat="48.67028" lon="7.25713">
        <ele>508.9</ele>
        <time>2023-10-13T10:09:40Z</time>
      </trkpt>
      <trkpt lat="48.67015" lon="7.25736">
        <ele>508.9</ele>
        <time>2023-10-13T10:09:45Z</time>
      </trkpt>
      <trkpt lat="48.67003" lon="7.25757">
        <ele>508.9</ele>
        <time>2023-10-13T10:09:49Z</time>
      </trkpt>
      <trkpt lat="48.66991" lon="7.2578">
        <ele>508.9</ele>
        <time>2023-10-13T10:09:54Z</time>
      </trkpt>
      <trkpt lat="48.6698" lon="7.25802">
        <ele>508.9</ele>
        <time>2023-10-13T10:09:58Z</time>
      </trkpt>
      <trkpt lat="48.66966" lon="7.25827">
        <ele>508.9</ele>
        <time>2023-10-13T10:10:03Z</time>
      </trkpt>
      <trkpt lat="48.66953" lon="7.25852">
        <ele>509</ele>
        <time>2023-10-13T10:10:08Z</time>
      </trkpt>
      <trkpt lat="48.66949" lon="7.25862">
        <ele>509</ele>
        <time>2023-10-13T10:10:10Z</time>
      </trkpt>
      <trkpt lat="48.66938" lon="7.25886">
        <ele>509.2</ele>
        <time>2023-10-13T10:10:15Z</time>
      </trkpt>
      <trkpt lat="48.66925" lon="7.2591">
        <ele>509.4</ele>
        <time>2023-10-13T10:10:20Z</time>
      </trkpt>
      <trkpt lat="48.66913" lon="7.25931">
        <ele>509.6</ele>
        <time>2023-10-13T10:10:24Z</time>
      </trkpt>
      <trkpt lat="48.66901" lon="7.25948">
        <ele>509.8</ele>
        <time>2023-10-13T10:10:28Z</time>
      </trkpt>
      <trkpt lat="48.66886" lon="7.25963">
        <ele>510.1</ele>
        <time>2023-10-13T10:10:33Z</time>
      </trkpt>
      <trkpt lat="48.66883" lon="7.25965">
        <ele>510.2</ele>
        <time>2023-10-13T10:10:34Z</time>
      </trkpt>
      <trkpt lat="48.66866" lon="7.25979">
        <ele>510.5</ele>
        <time>2023-10-13T10:10:40Z</time>
      </trkpt>
      <trkpt lat="48.66862" lon="7.25981">
        <ele>510.6</ele>
        <time>2023-10-13T10:10:41Z</time>
      </trkpt>
      <trkpt lat="48.66843" lon="7.25988">
        <ele>510.9</ele>
        <time>2023-10-13T10:10:46Z</time>
      </trkpt>
      <trkpt lat="48.66825" lon="7.25991">
        <ele>511.2</ele>
        <time>2023-10-13T10:10:50Z</time>
      </trkpt>
      <trkpt lat="48.66821" lon="7.25991">
        <ele>511.2</ele>
        <time>2023-10-13T10:10:51Z</time>
      </trkpt>
      <trkpt lat="48.66802" lon="7.25989">
        <ele>511.5</ele>
        <time>2023-10-13T10:10:56Z</time>
      </trkpt>
      <trkpt lat="48.66783" lon="7.25988">
        <ele>511.8</ele>
        <time>2023-10-13T10:11:01Z</time>
      </trkpt>
      <trkpt lat="48.66764" lon="7.25987">
        <ele>512.1</ele>
        <time>2023-10-13T10:11:06Z</time>
      </trkpt>
      <trkpt lat="48.66757" lon="7.25988">
        <ele>512.2</ele>
        <time>2023-10-13T10:11:08Z</time>
      </trkpt>
      <trkpt lat="48.66746" lon="7.25985">
        <ele>512.4</ele>
        <time>2023-10-13T10:11:11Z</time>
      </trkpt>
      <trkpt lat="48.66727" lon="7.25987">
        <ele>512.8</ele>
        <time>2023-10-13T10:11:16Z</time>
      </trkpt>
      <trkpt lat="48.66708" lon="7.25988">
        <ele>513.3</ele>
        <time>2023-10-13T10:11:20Z</time>
      </trkpt>
      <trkpt lat="48.66687" lon="7.25992">
        <ele>513.8</ele>
        <time>2023-10-13T10:11:25Z</time>
      </trkpt>
      <trkpt lat="48.66669" lon="7.25996">
        <ele>514.1</ele>
        <time>2023-10-13T10:11:30Z</time>
      </trkpt>
      <trkpt lat="48.6665" lon="7.26003">
        <ele>514.4</ele>
        <time>2023-10-13T10:11:35Z</time>
      </trkpt>
      <trkpt lat="48.66632" lon="7.26014">
        <ele>514.7</ele>
        <time>2023-10-13T10:11:40Z</time>
      </trkpt>
      <trkpt lat="48.66613" lon="7.26027">
        <ele>515</ele>
        <time>2023-10-13T10:11:45Z</time>
      </trkpt>
      <trkpt lat="48.66594" lon="7.26041">
        <ele>515.3</ele>
        <time>2023-10-13T10:11:51Z</time>
      </trkpt>
      <trkpt lat="48.66577" lon="7.26053">
        <ele>515.6</ele>
        <time>2023-10-13T10:11:56Z</time>
      </trkpt>
      <trkpt lat="48.66559" lon="7.26069">
        <ele>515.9</ele>
        <time>2023-10-13T10:12:02Z</time>
      </trkpt>
      <trkpt lat="48.66544" lon="7.26086">
        <ele>516.2</ele>
        <time>2023-10-13T10:12:06Z</time>
      </trkpt>
      <trkpt lat="48.66528" lon="7.26104">
        <ele>516.5</ele>
        <time>2023-10-13T10:12:10Z</time>
      </trkpt>
      <trkpt lat="48.66513" lon="7.26121">
        <ele>516.9</ele>
        <time>2023-10-13T10:12:14Z</time>
      </trkpt>
      <trkpt lat="48.66497" lon="7.26139">
        <ele>517.2</ele>
        <time>2023-10-13T10:12:18Z</time>
      </trkpt>
      <trkpt lat="48.6648" lon="7.26154">
        <ele>517.6</ele>
        <time>2023-10-13T10:12:22Z</time>
      </trkpt>
      <trkpt lat="48.66463" lon="7.26174">
        <ele>518.1</ele>
        <time>2023-10-13T10:12:27Z</time>
      </trkpt>
      <trkpt lat="48.66447" lon="7.26191">
        <ele>518.6</ele>
        <time>2023-10-13T10:12:31Z</time>
      </trkpt>
      <trkpt lat="48.6643" lon="7.2621">
        <ele>519.2</ele>
        <time>2023-10-13T10:12:36Z</time>
      </trkpt>
      <trkpt lat="48.66411" lon="7.26222">
        <ele>519.7</ele>
        <time>2023-10-13T10:12:40Z</time>
      </trkpt>
      <trkpt lat="48.66392" lon="7.26231">
        <ele>519.7</ele>
        <time>2023-10-13T10:12:44Z</time>
      </trkpt>
      <trkpt lat="48.6637" lon="7.26238">
        <ele>519.8</ele>
        <time>2023-10-13T10:12:49Z</time>
      </trkpt>
      <trkpt lat="48.6635" lon="7.2624">
        <ele>520.1</ele>
        <time>2023-10-13T10:12:54Z</time>
      </trkpt>
      <trkpt lat="48.66331" lon="7.26242">
        <ele>520.4</ele>
        <time>2023-10-13T10:12:59Z</time>
      </trkpt>
      <trkpt lat="48.66313" lon="7.26245">
        <ele>520.7</ele>
        <time>2023-10-13T10:13:04Z</time>
      </trkpt>
      <trkpt lat="48.66294" lon="7.26243">
        <ele>521</ele>
        <time>2023-10-13T10:13:09Z</time>
      </trkpt>
      <trkpt lat="48.66276" lon="7.2624">
        <ele>521.3</ele>
        <time>2023-10-13T10:13:13Z</time>
      </trkpt>
      <trkpt lat="48.66253" lon="7.26234">
        <ele>521.6</ele>
        <time>2023-10-13T10:13:18Z</time>
      </trkpt>
      <trkpt lat="48.66235" lon="7.26231">
        <ele>521.8</ele>
        <time>2023-10-13T10:13:22Z</time>
      </trkpt>
      <trkpt lat="48.66215" lon="7.26229">
        <ele>522.1</ele>
        <time>2023-10-13T10:13:27Z</time>
      </trkpt>
      <trkpt lat="48.66195" lon="7.26227">
        <ele>522.2</ele>
        <time>2023-10-13T10:13:32Z</time>
      </trkpt>
      <trkpt lat="48.66174" lon="7.26228">
        <ele>522.4</ele>
        <time>2023-10-13T10:13:37Z</time>
      </trkpt>
      <trkpt lat="48.66155" lon="7.26235">
        <ele>522.3</ele>
        <time>2023-10-13T10:13:44Z</time>
      </trkpt>
      <trkpt lat="48.66135" lon="7.26245">
        <ele>522.3</ele>
        <time>2023-10-13T10:13:50Z</time>
      </trkpt>
      <trkpt lat="48.66115" lon="7.26253">
        <ele>522.8</ele>
        <time>2023-10-13T10:13:55Z</time>
      </trkpt>
      <trkpt lat="48.66096" lon="7.26259">
        <ele>523.4</ele>
        <time>2023-10-13T10:13:58Z</time>
      </trkpt>
      <trkpt lat="48.66075" lon="7.26265">
        <ele>523.9</ele>
        <time>2023-10-13T10:14:01Z</time>
      </trkpt>
      <trkpt lat="48.66054" lon="7.26274">
        <ele>524.5</ele>
        <time>2023-10-13T10:14:05Z</time>
      </trkpt>
      <trkpt lat="48.66049" lon="7.26277">
        <ele>524.7</ele>
        <time>2023-10-13T10:14:06Z</time>
      </trkpt>
      <trkpt lat="48.66034" lon="7.26294">
        <ele>525.6</ele>
        <time>2023-10-13T10:14:11Z</time>
      </trkpt>
      <trkpt lat="48.66035" lon="7.26296">
        <ele>525.7</ele>
        <time>2023-10-13T10:14:14Z</time>
      </trkpt>
      <trkpt lat="48.66052" lon="7.26282">
        <ele>524.8</ele>
        <time>2023-10-13T10:14:19Z</time>
      </trkpt>
      <trkpt lat="48.66072" lon="7.26274">
        <ele>524.1</ele>
        <time>2023-10-13T10:14:24Z</time>
      </trkpt>
      <trkpt lat="48.66089" lon="7.26264">
        <ele>523.7</ele>
        <time>2023-10-13T10:14:29Z</time>
      </trkpt>
      <trkpt lat="48.66107" lon="7.26252">
        <ele>523.2</ele>
        <time>2023-10-13T10:14:34Z</time>
      </trkpt>
      <trkpt lat="48.66125" lon="7.2624">
        <ele>522.5</ele>
        <time>2023-10-13T10:14:39Z</time>
      </trkpt>
      <trkpt lat="48.66144" lon="7.26229">
        <ele>522.3</ele>
        <time>2023-10-13T10:14:44Z</time>
      </trkpt>
      <trkpt lat="48.66163" lon="7.26223">
        <ele>522.4</ele>
        <time>2023-10-13T10:14:49Z</time>
      </trkpt>
      <trkpt lat="48.66184" lon="7.26219">
        <ele>522.3</ele>
        <time>2023-10-13T10:14:54Z</time>
      </trkpt>
      <trkpt lat="48.66203" lon="7.2622">
        <ele>522.2</ele>
        <time>2023-10-13T10:14:59Z</time>
      </trkpt>
      <trkpt lat="48.66222" lon="7.26225">
        <ele>522</ele>
        <time>2023-10-13T10:15:04Z</time>
      </trkpt>
      <trkpt lat="48.66241" lon="7.2623">
        <ele>521.8</ele>
        <time>2023-10-13T10:15:09Z</time>
      </trkpt>
      <trkpt lat="48.6626" lon="7.26235">
        <ele>521.5</ele>
        <time>2023-10-13T10:15:14Z</time>
      </trkpt>
      <trkpt lat="48.66279" lon="7.26239">
        <ele>521.2</ele>
        <time>2023-10-13T10:15:18Z</time>
      </trkpt>
      <trkpt lat="48.66298" lon="7.26239">
        <ele>520.9</ele>
        <time>2023-10-13T10:15:22Z</time>
      </trkpt>
      <trkpt lat="48.66302" lon="7.26239">
        <ele>520.8</ele>
        <time>2023-10-13T10:15:23Z</time>
      </trkpt>
      <trkpt lat="48.66324" lon="7.26237">
        <ele>520.5</ele>
        <time>2023-10-13T10:15:28Z</time>
      </trkpt>
      <trkpt lat="48.66344" lon="7.26235">
        <ele>520.2</ele>
        <time>2023-10-13T10:15:32Z</time>
      </trkpt>
      <trkpt lat="48.66362" lon="7.26233">
        <ele>519.9</ele>
        <time>2023-10-13T10:15:36Z</time>
      </trkpt>
      <trkpt lat="48.66383" lon="7.26228">
        <ele>519.7</ele>
        <time>2023-10-13T10:15:41Z</time>
      </trkpt>
      <trkpt lat="48.66402" lon="7.2622">
        <ele>519.7</ele>
        <time>2023-10-13T10:15:46Z</time>
      </trkpt>
      <trkpt lat="48.66406" lon="7.26216">
        <ele>519.7</ele>
        <time>2023-10-13T10:15:47Z</time>
      </trkpt>
      <trkpt lat="48.66421" lon="7.262">
        <ele>519.3</ele>
        <time>2023-10-13T10:15:51Z</time>
      </trkpt>
      <trkpt lat="48.66431" lon="7.26187">
        <ele>518.9</ele>
        <time>2023-10-13T10:15:54Z</time>
      </trkpt>
      <trkpt lat="48.66446" lon="7.26164">
        <ele>518.4</ele>
        <time>2023-10-13T10:15:59Z</time>
      </trkpt>
      <trkpt lat="48.66459" lon="7.26148">
        <ele>517.9</ele>
        <time>2023-10-13T10:16:03Z</time>
      </trkpt>
      <trkpt lat="48.66478" lon="7.26134">
        <ele>517.5</ele>
        <time>2023-10-13T10:16:08Z</time>
      </trkpt>
      <trkpt lat="48.66496" lon="7.26116">
        <ele>517</ele>
        <time>2023-10-13T10:16:13Z</time>
      </trkpt>
      <trkpt lat="48.66514" lon="7.26102">
        <ele>516.7</ele>
        <time>2023-10-13T10:16:18Z</time>
      </trkpt>
      <trkpt lat="48.66523" lon="7.26093">
        <ele>516.5</ele>
        <time>2023-10-13T10:16:21Z</time>
      </trkpt>
      <trkpt lat="48.66537" lon="7.26076">
        <ele>516.1</ele>
        <time>2023-10-13T10:16:26Z</time>
      </trkpt>
      <trkpt lat="48.66555" lon="7.26058">
        <ele>515.8</ele>
        <time>2023-10-13T10:16:31Z</time>
      </trkpt>
      <trkpt lat="48.66569" lon="7.26046">
        <ele>515.6</ele>
        <time>2023-10-13T10:16:35Z</time>
      </trkpt>
      <trkpt lat="48.66585" lon="7.26033">
        <ele>515.3</ele>
        <time>2023-10-13T10:16:39Z</time>
      </trkpt>
      <trkpt lat="48.66602" lon="7.26022">
        <ele>515</ele>
        <time>2023-10-13T10:16:43Z</time>
      </trkpt>
      <trkpt lat="48.66622" lon="7.26014">
        <ele>514.7</ele>
        <time>2023-10-13T10:16:47Z</time>
      </trkpt>
      <trkpt lat="48.66641" lon="7.26005">
        <ele>514.4</ele>
        <time>2023-10-13T10:16:52Z</time>
      </trkpt>
      <trkpt lat="48.66661" lon="7.26003">
        <ele>514</ele>
        <time>2023-10-13T10:16:56Z</time>
      </trkpt>
      <trkpt lat="48.66681" lon="7.25999">
        <ele>513.7</ele>
        <time>2023-10-13T10:17:00Z</time>
      </trkpt>
      <trkpt lat="48.66701" lon="7.25993">
        <ele>513.2</ele>
        <time>2023-10-13T10:17:05Z</time>
      </trkpt>
      <trkpt lat="48.66722" lon="7.25989">
        <ele>512.7</ele>
        <time>2023-10-13T10:17:10Z</time>
      </trkpt>
      <trkpt lat="48.66742" lon="7.25991">
        <ele>512.3</ele>
        <time>2023-10-13T10:17:15Z</time>
      </trkpt>
      <trkpt lat="48.66761" lon="7.25991">
        <ele>512</ele>
        <time>2023-10-13T10:17:20Z</time>
      </trkpt>
      <trkpt lat="48.66773" lon="7.25992">
        <ele>511.8</ele>
        <time>2023-10-13T10:17:23Z</time>
      </trkpt>
      <trkpt lat="48.66792" lon="7.25988">
        <ele>511.5</ele>
        <time>2023-10-13T10:17:27Z</time>
      </trkpt>
      <trkpt lat="48.66813" lon="7.25981">
        <ele>511.2</ele>
        <time>2023-10-13T10:17:32Z</time>
      </trkpt>
      <trkpt lat="48.66832" lon="7.25972">
        <ele>510.8</ele>
        <time>2023-10-13T10:17:37Z</time>
      </trkpt>
      <trkpt lat="48.66845" lon="7.25963">
        <ele>510.6</ele>
        <time>2023-10-13T10:17:40Z</time>
      </trkpt>
      <trkpt lat="48.66863" lon="7.25951">
        <ele>510.3</ele>
        <time>2023-10-13T10:17:44Z</time>
      </trkpt>
      <trkpt lat="48.66866" lon="7.25948">
        <ele>510.2</ele>
        <time>2023-10-13T10:17:45Z</time>
      </trkpt>
      <trkpt lat="48.66881" lon="7.25932">
        <ele>509.9</ele>
        <time>2023-10-13T10:17:49Z</time>
      </trkpt>
      <trkpt lat="48.66896" lon="7.25917">
        <ele>509.6</ele>
        <time>2023-10-13T10:17:53Z</time>
      </trkpt>
      <trkpt lat="48.66914" lon="7.25898">
        <ele>509.3</ele>
        <time>2023-10-13T10:17:58Z</time>
      </trkpt>
      <trkpt lat="48.6693" lon="7.25875">
        <ele>509.1</ele>
        <time>2023-10-13T10:18:03Z</time>
      </trkpt>
      <trkpt lat="48.66946" lon="7.25852">
        <ele>509</ele>
        <time>2023-10-13T10:18:08Z</time>
      </trkpt>
      <trkpt lat="48.66962" lon="7.2583">
        <ele>508.9</ele>
        <time>2023-10-13T10:18:13Z</time>
      </trkpt>
      <trkpt lat="48.66976" lon="7.25807">
        <ele>508.9</ele>
        <time>2023-10-13T10:18:18Z</time>
      </trkpt>
      <trkpt lat="48.66987" lon="7.25791">
        <ele>508.9</ele>
        <time>2023-10-13T10:18:22Z</time>
      </trkpt>
      <trkpt lat="48.66997" lon="7.25779">
        <ele>508.9</ele>
        <time>2023-10-13T10:18:25Z</time>
      </trkpt>
      <trkpt lat="48.67008" lon="7.2576">
        <ele>508.9</ele>
        <time>2023-10-13T10:18:29Z</time>
      </trkpt>
      <trkpt lat="48.67014" lon="7.2575">
        <ele>508.9</ele>
        <time>2023-10-13T10:18:31Z</time>
      </trkpt>
      <trkpt lat="48.67027" lon="7.25731">
        <ele>508.9</ele>
        <time>2023-10-13T10:18:35Z</time>
      </trkpt>
      <trkpt lat="48.67034" lon="7.25719">
        <ele>508.9</ele>
        <time>2023-10-13T10:18:37Z</time>
      </trkpt>
      <trkpt lat="48.67042" lon="7.25706">
        <ele>509</ele>
        <time>2023-10-13T10:18:40Z</time>
      </trkpt>
      <trkpt lat="48.67057" lon="7.25685">
        <ele>509.2</ele>
        <time>2023-10-13T10:18:48Z</time>
      </trkpt>
      <trkpt lat="48.67073" lon="7.25667">
        <ele>509.3</ele>
        <time>2023-10-13T10:18:56Z</time>
      </trkpt>
      <trkpt lat="48.67089" lon="7.25648">
        <ele>509.2</ele>
        <time>2023-10-13T10:19:04Z</time>
      </trkpt>
      <trkpt lat="48.67106" lon="7.25632">
        <ele>509.1</ele>
        <time>2023-10-13T10:19:11Z</time>
      </trkpt>
      <trkpt lat="48.67121" lon="7.25614">
        <ele>508.9</ele>
        <time>2023-10-13T10:19:18Z</time>
      </trkpt>
      <trkpt lat="48.67138" lon="7.25598">
        <ele>508.6</ele>
        <time>2023-10-13T10:19:25Z</time>
      </trkpt>
      <trkpt lat="48.67152" lon="7.25589">
        <ele>508.4</ele>
        <time>2023-10-13T10:19:34Z</time>
      </trkpt>
      <trkpt lat="48.67145" lon="7.25589">
        <ele>508.5</ele>
        <time>2023-10-13T10:19:36Z</time>
      </trkpt>
      <trkpt lat="48.67143" lon="7.2559">
        <ele>508.6</ele>
        <time>2023-10-13T10:19:37Z</time>
      </trkpt>
      <trkpt lat="48.67126" lon="7.25605">
        <ele>508.8</ele>
        <time>2023-10-13T10:19:45Z</time>
      </trkpt>
      <trkpt lat="48.67109" lon="7.25626">
        <ele>509</ele>
        <time>2023-10-13T10:19:51Z</time>
      </trkpt>
      <trkpt lat="48.67093" lon="7.25646">
        <ele>509.2</ele>
        <time>2023-10-13T10:19:56Z</time>
      </trkpt>
      <trkpt lat="48.67087" lon="7.25652">
        <ele>509.2</ele>
        <time>2023-10-13T10:19:58Z</time>
      </trkpt>
      <trkpt lat="48.67069" lon="7.2567">
        <ele>509.3</ele>
        <time>2023-10-13T10:20:03Z</time>
      </trkpt>
      <trkpt lat="48.67057" lon="7.25688">
        <ele>509.2</ele>
        <time>2023-10-13T10:20:07Z</time>
      </trkpt>
      <trkpt lat="48.67045" lon="7.25712">
        <ele>509</ele>
        <time>2023-10-13T10:20:11Z</time>
      </trkpt>
      <trkpt lat="48.67032" lon="7.25736">
        <ele>508.9</ele>
        <time>2023-10-13T10:20:15Z</time>
      </trkpt>
      <trkpt lat="48.67017" lon="7.25763">
        <ele>508.9</ele>
        <time>2023-10-13T10:20:20Z</time>
      </trkpt>
      <trkpt lat="48.67005" lon="7.25787">
        <ele>508.9</ele>
        <time>2023-10-13T10:20:24Z</time>
      </trkpt>
      <trkpt lat="48.66993" lon="7.25811">
        <ele>508.9</ele>
        <time>2023-10-13T10:20:28Z</time>
      </trkpt>
      <trkpt lat="48.6698" lon="7.25839">
        <ele>508.9</ele>
        <time>2023-10-13T10:20:33Z</time>
      </trkpt>
      <trkpt lat="48.66967" lon="7.25865">
        <ele>509</ele>
        <time>2023-10-13T10:20:38Z</time>
      </trkpt>
      <trkpt lat="48.66953" lon="7.2589">
        <ele>509.1</ele>
        <time>2023-10-13T10:20:43Z</time>
      </trkpt>
      <trkpt lat="48.6695" lon="7.25894">
        <ele>509.1</ele>
        <time>2023-10-13T10:20:44Z</time>
      </trkpt>
      <trkpt lat="48.66936" lon="7.25918">
        <ele>509.2</ele>
        <time>2023-10-13T10:20:49Z</time>
      </trkpt>
      <trkpt lat="48.66922" lon="7.25939">
        <ele>509.5</ele>
        <time>2023-10-13T10:20:54Z</time>
      </trkpt>
      <trkpt lat="48.66906" lon="7.2596">
        <ele>509.8</ele>
        <time>2023-10-13T10:21:00Z</time>
      </trkpt>
      <trkpt lat="48.6689" lon="7.25974">
        <ele>510</ele>
        <time>2023-10-13T10:21:05Z</time>
      </trkpt>
      <trkpt lat="48.66876" lon="7.25983">
        <ele>510.3</ele>
        <time>2023-10-13T10:21:09Z</time>
      </trkpt>
      <trkpt lat="48.66854" lon="7.25991">
        <ele>510.7</ele>
        <time>2023-10-13T10:21:14Z</time>
      </trkpt>
      <trkpt lat="48.66833" lon="7.25994">
        <ele>511</ele>
        <time>2023-10-13T10:21:19Z</time>
      </trkpt>
      <trkpt lat="48.66821" lon="7.25993">
        <ele>511.2</ele>
        <time>2023-10-13T10:21:22Z</time>
      </trkpt>
      <trkpt lat="48.66801" lon="7.2599">
        <ele>511.5</ele>
        <time>2023-10-13T10:21:27Z</time>
      </trkpt>
      <trkpt lat="48.66797" lon="7.25989">
        <ele>511.6</ele>
        <time>2023-10-13T10:21:28Z</time>
      </trkpt>
      <trkpt lat="48.66786" lon="7.25989">
        <ele>511.8</ele>
        <time>2023-10-13T10:21:31Z</time>
      </trkpt>
      <trkpt lat="48.66768" lon="7.2599">
        <ele>512</ele>
        <time>2023-10-13T10:21:36Z</time>
      </trkpt>
      <trkpt lat="48.66764" lon="7.25989">
        <ele>512.1</ele>
        <time>2023-10-13T10:21:37Z</time>
      </trkpt>
      <trkpt lat="48.66745" lon="7.25989">
        <ele>512.4</ele>
        <time>2023-10-13T10:21:42Z</time>
      </trkpt>
      <trkpt lat="48.66726" lon="7.25989">
        <ele>512.8</ele>
        <time>2023-10-13T10:21:47Z</time>
      </trkpt>
      <trkpt lat="48.66706" lon="7.25994">
        <ele>513.3</ele>
        <time>2023-10-13T10:21:52Z</time>
      </trkpt>
      <trkpt lat="48.66687" lon="7.25996">
        <ele>513.8</ele>
        <time>2023-10-13T10:21:57Z</time>
      </trkpt>
      <trkpt lat="48.66666" lon="7.26">
        <ele>514.1</ele>
        <time>2023-10-13T10:22:03Z</time>
      </trkpt>
      <trkpt lat="48.66657" lon="7.25999">
        <ele>514.2</ele>
        <time>2023-10-13T10:22:06Z</time>
      </trkpt>
      <trkpt lat="48.66637" lon="7.26004">
        <ele>514.6</ele>
        <time>2023-10-13T10:22:12Z</time>
      </trkpt>
      <trkpt lat="48.66619" lon="7.26016">
        <ele>514.9</ele>
        <time>2023-10-13T10:22:18Z</time>
      </trkpt>
      <trkpt lat="48.66602" lon="7.26031">
        <ele>515.2</ele>
        <time>2023-10-13T10:22:23Z</time>
      </trkpt>
      <trkpt lat="48.66587" lon="7.2605">
        <ele>515.5</ele>
        <time>2023-10-13T10:22:28Z</time>
      </trkpt>
      <trkpt lat="48.66571" lon="7.26072">
        <ele>515.8</ele>
        <time>2023-10-13T10:22:33Z</time>
      </trkpt>
      <trkpt lat="48.66555" lon="7.26094">
        <ele>516.1</ele>
        <time>2023-10-13T10:22:38Z</time>
      </trkpt>
      <trkpt lat="48.66539" lon="7.26114">
        <ele>516.5</ele>
        <time>2023-10-13T10:22:42Z</time>
      </trkpt>
      <trkpt lat="48.66523" lon="7.26132">
        <ele>516.8</ele>
        <time>2023-10-13T10:22:46Z</time>
      </trkpt>
      <trkpt lat="48.66506" lon="7.26151">
        <ele>517.2</ele>
        <time>2023-10-13T10:22:51Z</time>
      </trkpt>
      <trkpt lat="48.6649" lon="7.26171">
        <ele>517.6</ele>
        <time>2023-10-13T10:22:56Z</time>
      </trkpt>
      <trkpt lat="48.66474" lon="7.26188">
        <ele>518.1</ele>
        <time>2023-10-13T10:23:00Z</time>
      </trkpt>
      <trkpt lat="48.66457" lon="7.26207">
        <ele>518.6</ele>
        <time>2023-10-13T10:23:05Z</time>
      </trkpt>
      <trkpt lat="48.66437" lon="7.26221">
        <ele>519.2</ele>
        <time>2023-10-13T10:23:10Z</time>
      </trkpt>
      <trkpt lat="48.66419" lon="7.26233">
        <ele>519.6</ele>
        <time>2023-10-13T10:23:14Z</time>
      </trkpt>
      <trkpt lat="48.66397" lon="7.26235">
        <ele>519.7</ele>
        <time>2023-10-13T10:23:19Z</time>
      </trkpt>
      <trkpt lat="48.66375" lon="7.26234">
        <ele>519.8</ele>
        <time>2023-10-13T10:23:24Z</time>
      </trkpt>
      <trkpt lat="48.66355" lon="7.26237">
        <ele>520.1</ele>
        <time>2023-10-13T10:23:29Z</time>
      </trkpt>
      <trkpt lat="48.66333" lon="7.26237">
        <ele>520.5</ele>
        <time>2023-10-13T10:23:34Z</time>
      </trkpt>
      <trkpt lat="48.66315" lon="7.26234">
        <ele>520.7</ele>
        <time>2023-10-13T10:23:38Z</time>
      </trkpt>
      <trkpt lat="48.66295" lon="7.26234">
        <ele>521</ele>
        <time>2023-10-13T10:23:42Z</time>
      </trkpt>
      <trkpt lat="48.66273" lon="7.26232">
        <ele>521.4</ele>
        <time>2023-10-13T10:23:47Z</time>
      </trkpt>
      <trkpt lat="48.6625" lon="7.2623">
        <ele>521.7</ele>
        <time>2023-10-13T10:23:52Z</time>
      </trkpt>
      <trkpt lat="48.66232" lon="7.26231">
        <ele>521.9</ele>
        <time>2023-10-13T10:23:56Z</time>
      </trkpt>
      <trkpt lat="48.66213" lon="7.2623">
        <ele>522.1</ele>
        <time>2023-10-13T10:24:00Z</time>
      </trkpt>
      <trkpt lat="48.66191" lon="7.26228">
        <ele>522.3</ele>
        <time>2023-10-13T10:24:05Z</time>
      </trkpt>
      <trkpt lat="48.66187" lon="7.26229">
        <ele>522.3</ele>
        <time>2023-10-13T10:24:06Z</time>
      </trkpt>
      <trkpt lat="48.66169" lon="7.26237">
        <ele>522.4</ele>
        <time>2023-10-13T10:24:11Z</time>
      </trkpt>
      <trkpt lat="48.66162" lon="7.26242">
        <ele>522.4</ele>
        <time>2023-10-13T10:24:13Z</time>
      </trkpt>
      <trkpt lat="48.66144" lon="7.26255">
        <ele>522.3</ele>
        <time>2023-10-13T10:24:18Z</time>
      </trkpt>
      <trkpt lat="48.66137" lon="7.26259">
        <ele>522.4</ele>
        <time>2023-10-13T10:24:20Z</time>
      </trkpt>
      <trkpt lat="48.66121" lon="7.26269">
        <ele>522.8</ele>
        <time>2023-10-13T10:24:24Z</time>
      </trkpt>
      <trkpt lat="48.66105" lon="7.26275">
        <ele>523.3</ele>
        <time>2023-10-13T10:24:28Z</time>
      </trkpt>
      <trkpt lat="48.66092" lon="7.26282">
        <ele>523.6</ele>
        <time>2023-10-13T10:24:31Z</time>
      </trkpt>
      <trkpt lat="48.66076" lon="7.26295">
        <ele>524</ele>
        <time>2023-10-13T10:24:35Z</time>
      </trkpt>
      <trkpt lat="48.66064" lon="7.26304">
        <ele>524.4</ele>
        <time>2023-10-13T10:24:39Z</time>
      </trkpt>
      <trkpt lat="48.66079" lon="7.26282">
        <ele>523.9</ele>
        <time>2023-10-13T10:24:46Z</time>
      </trkpt>
      <trkpt lat="48.66099" lon="7.26269">
        <ele>523.4</ele>
        <time>2023-10-13T10:24:52Z</time>
      </trkpt>
      <trkpt lat="48.66118" lon="7.26258">
        <ele>522.8</ele>
        <time>2023-10-13T10:24:57Z</time>
      </trkpt>
      <trkpt lat="48.66135" lon="7.26245">
        <ele>522.3</ele>
        <time>2023-10-13T10:25:02Z</time>
      </trkpt>
      <trkpt lat="48.66152" lon="7.26232">
        <ele>522.3</ele>
        <time>2023-10-13T10:25:07Z</time>
      </trkpt>
      <trkpt lat="48.6617" lon="7.26221">
        <ele>522.4</ele>
        <time>2023-10-13T10:25:12Z</time>
      </trkpt>
      <trkpt lat="48.66188" lon="7.26215">
        <ele>522.3</ele>
        <time>2023-10-13T10:25:17Z</time>
      </trkpt>
      <trkpt lat="48.66209" lon="7.26213">
        <ele>522.1</ele>
        <time>2023-10-13T10:25:23Z</time>
      </trkpt>
      <trkpt lat="48.66229" lon="7.26216">
        <ele>521.9</ele>
        <time>2023-10-13T10:25:28Z</time>
      </trkpt>
      <trkpt lat="48.66247" lon="7.26222">
        <ele>521.7</ele>
        <time>2023-10-13T10:25:33Z</time>
      </trkpt>
      <trkpt lat="48.66267" lon="7.26229">
        <ele>521.3</ele>
        <time>2023-10-13T10:25:38Z</time>
      </trkpt>
      <trkpt lat="48.66289" lon="7.26235">
        <ele>521</ele>
        <time>2023-10-13T10:25:43Z</time>
      </trkpt>
      <trkpt lat="48.66307" lon="7.26237">
        <ele>520.7</ele>
        <time>2023-10-13T10:25:47Z</time>
      </trkpt>
      <trkpt lat="48.66329" lon="7.26236">
        <ele>520.4</ele>
        <time>2023-10-13T10:25:52Z</time>
      </trkpt>
      <trkpt lat="48.66348" lon="7.26235">
        <ele>520.1</ele>
        <time>2023-10-13T10:25:56Z</time>
      </trkpt>
      <trkpt lat="48.66367" lon="7.26232">
        <ele>519.8</ele>
        <time>2023-10-13T10:26:00Z</time>
      </trkpt>
      <trkpt lat="48.66377" lon="7.26229">
        <ele>519.7</ele>
        <time>2023-10-13T10:26:02Z</time>
      </trkpt>
      <trkpt lat="48.66395" lon="7.2622">
        <ele>519.7</ele>
        <time>2023-10-13T10:26:06Z</time>
      </trkpt>
      <trkpt lat="48.66415" lon="7.26208">
        <ele>519.5</ele>
        <time>2023-10-13T10:26:11Z</time>
      </trkpt>
      <trkpt lat="48.66421" lon="7.26201">
        <ele>519.3</ele>
        <time>2023-10-13T10:26:13Z</time>
      </trkpt>
      <trkpt lat="48.66438" lon="7.26182">
        <ele>518.7</ele>
        <time>2023-10-13T10:26:18Z</time>
      </trkpt>
      <trkpt lat="48.66443" lon="7.26175">
        <ele>518.5</ele>
        <time>2023-10-13T10:26:20Z</time>
      </trkpt>
      <trkpt lat="48.66449" lon="7.26166">
        <ele>518.3</ele>
        <time>2023-10-13T10:26:22Z</time>
      </trkpt>
      <trkpt lat="48.66467" lon="7.26151">
        <ele>517.8</ele>
        <time>2023-10-13T10:26:27Z</time>
      </trkpt>
      <trkpt lat="48.66484" lon="7.26136">
        <ele>517.4</ele>
        <time>2023-10-13T10:26:32Z</time>
      </trkpt>
      <trkpt lat="48.66502" lon="7.26121">
        <ele>517</ele>
        <time>2023-10-13T10:26:37Z</time>
      </trkpt>
      <trkpt lat="48.66518" lon="7.26106">
        <ele>516.6</ele>
        <time>2023-10-13T10:26:42Z</time>
      </trkpt>
      <trkpt lat="48.66531" lon="7.26092">
        <ele>516.4</ele>
        <time>2023-10-13T10:26:46Z</time>
      </trkpt>
      <trkpt lat="48.66548" lon="7.26073">
        <ele>516</ele>
        <time>2023-10-13T10:26:51Z</time>
      </trkpt>
      <trkpt lat="48.66565" lon="7.26057">
        <ele>515.7</ele>
        <time>2023-10-13T10:26:55Z</time>
      </trkpt>
      <trkpt lat="48.66576" lon="7.26048">
        <ele>515.5</ele>
        <time>2023-10-13T10:26:58Z</time>
      </trkpt>
      <trkpt lat="48.66595" lon="7.26035">
        <ele>515.2</ele>
        <time>2023-10-13T10:27:02Z</time>
      </trkpt>
      <trkpt lat="48.66611" lon="7.26022">
        <ele>514.9</ele>
        <time>2023-10-13T10:27:06Z</time>
      </trkpt>
      <trkpt lat="48.66629" lon="7.26011">
        <ele>514.6</ele>
        <time>2023-10-13T10:27:10Z</time>
      </trkpt>
      <trkpt lat="48.66636" lon="7.26006">
        <ele>514.5</ele>
        <time>2023-10-13T10:27:12Z</time>
      </trkpt>
      <trkpt lat="48.66648" lon="7.26">
        <ele>514.3</ele>
        <time>2023-10-13T10:27:15Z</time>
      </trkpt>
      <trkpt lat="48.66666" lon="7.25991">
        <ele>514</ele>
        <time>2023-10-13T10:27:19Z</time>
      </trkpt>
      <trkpt lat="48.66683" lon="7.25984">
        <ele>513.7</ele>
        <time>2023-10-13T10:27:23Z</time>
      </trkpt>
      <trkpt lat="48.66703" lon="7.25981">
        <ele>513.2</ele>
        <time>2023-10-13T10:27:29Z</time>
      </trkpt>
      <trkpt lat="48.66724" lon="7.25982">
        <ele>512.7</ele>
        <time>2023-10-13T10:27:34Z</time>
      </trkpt>
      <trkpt lat="48.66743" lon="7.25984">
        <ele>512.3</ele>
        <time>2023-10-13T10:27:38Z</time>
      </trkpt>
      <trkpt lat="48.66756" lon="7.25987">
        <ele>512.1</ele>
        <time>2023-10-13T10:27:41Z</time>
      </trkpt>
      <trkpt lat="48.66768" lon="7.25989">
        <ele>511.9</ele>
        <time>2023-10-13T10:27:44Z</time>
      </trkpt>
      <trkpt lat="48.66789" lon="7.25989">
        <ele>511.6</ele>
        <time>2023-10-13T10:27:49Z</time>
      </trkpt>
      <trkpt lat="48.66798" lon="7.25988">
        <ele>511.4</ele>
        <time>2023-10-13T10:27:51Z</time>
      </trkpt>
      <trkpt lat="48.66819" lon="7.25982">
        <ele>511.1</ele>
        <time>2023-10-13T10:27:56Z</time>
      </trkpt>
      <trkpt lat="48.66833" lon="7.25978">
        <ele>510.9</ele>
        <time>2023-10-13T10:27:59Z</time>
      </trkpt>
      <trkpt lat="48.66846" lon="7.25974">
        <ele>510.7</ele>
        <time>2023-10-13T10:28:02Z</time>
      </trkpt>
      <trkpt lat="48.66866" lon="7.25964">
        <ele>510.3</ele>
        <time>2023-10-13T10:28:07Z</time>
      </trkpt>
      <trkpt lat="48.66884" lon="7.25951">
        <ele>510</ele>
        <time>2023-10-13T10:28:11Z</time>
      </trkpt>
      <trkpt lat="48.66902" lon="7.25933">
        <ele>509.7</ele>
        <time>2023-10-13T10:28:15Z</time>
      </trkpt>
      <trkpt lat="48.66919" lon="7.25912">
        <ele>509.4</ele>
        <time>2023-10-13T10:28:19Z</time>
      </trkpt>
      <trkpt lat="48.66933" lon="7.25893">
        <ele>509.2</ele>
        <time>2023-10-13T10:28:23Z</time>
      </trkpt>
      <trkpt lat="48.66947" lon="7.25872">
        <ele>509</ele>
        <time>2023-10-13T10:28:27Z</time>
      </trkpt>
      <trkpt lat="48.6696" lon="7.25849">
        <ele>508.9</ele>
        <time>2023-10-13T10:28:31Z</time>
      </trkpt>
      <trkpt lat="48.66972" lon="7.25827">
        <ele>508.9</ele>
        <time>2023-10-13T10:28:35Z</time>
      </trkpt>
      <trkpt lat="48.66978" lon="7.25815">
        <ele>508.9</ele>
        <time>2023-10-13T10:28:37Z</time>
      </trkpt>
      <trkpt lat="48.66991" lon="7.25789">
        <ele>508.9</ele>
        <time>2023-10-13T10:28:42Z</time>
      </trkpt>
      <trkpt lat="48.67004" lon="7.25769">
        <ele>508.9</ele>
        <time>2023-10-13T10:28:51Z</time>
      </trkpt>
      <trkpt lat="48.67017" lon="7.25746">
        <ele>508.9</ele>
        <time>2023-10-13T10:29:01Z</time>
      </trkpt>
      <trkpt lat="48.67027" lon="7.25721">
        <ele>508.9</ele>
        <time>2023-10-13T10:29:11Z</time>
      </trkpt>
      <trkpt lat="48.67039" lon="7.25701">
        <ele>509</ele>
        <time>2023-10-13T10:29:20Z</time>
      </trkpt>
      <trkpt lat="48.67054" lon="7.25681">
        <ele>509.3</ele>
        <time>2023-10-13T10:29:29Z</time>
      </trkpt>
      <trkpt lat="48.67069" lon="7.25664">
        <ele>509.2</ele>
        <time>2023-10-13T10:29:37Z</time>
      </trkpt>
      <trkpt lat="48.67084" lon="7.25645">
        <ele>509.2</ele>
        <time>2023-10-13T10:29:44Z</time>
      </trkpt>
      <trkpt lat="48.67101" lon="7.25631">
        <ele>509.1</ele>
        <time>2023-10-13T10:29:53Z</time>
      </trkpt>
      <trkpt lat="48.67118" lon="7.25615">
        <ele>508.9</ele>
        <time>2023-10-13T10:30:03Z</time>
      </trkpt>
      <trkpt lat="48.67136" lon="7.25607">
        <ele>508.7</ele>
        <time>2023-10-13T10:30:11Z</time>
      </trkpt>
      <trkpt lat="48.67154" lon="7.25603">
        <ele>508.4</ele>
        <time>2023-10-13T10:30:19Z</time>
      </trkpt>
      <trkpt lat="48.67174" lon="7.25604">
        <ele>507.5</ele>
        <time>2023-10-13T10:30:28Z</time>
      </trkpt>
      <trkpt lat="48.67196" lon="7.25603">
        <ele>505.7</ele>
        <time>2023-10-13T10:30:38Z</time>
      </trkpt>
      <trkpt lat="48.67214" lon="7.25602">
        <ele>504.1</ele>
        <time>2023-10-13T10:30:46Z</time>
      </trkpt>
      <trkpt lat="48.67227" lon="7.25581">
        <ele>502.9</ele>
        <time>2023-10-13T10:30:54Z</time>
      </trkpt>
      <trkpt lat="48.67234" lon="7.25553">
        <ele>501.6</ele>
        <time>2023-10-13T10:31:02Z</time>
      </trkpt>
      <trkpt lat="48.67245" lon="7.25531">
        <ele>500.3</ele>
        <time>2023-10-13T10:31:08Z</time>
      </trkpt>
      <trkpt lat="48.6726" lon="7.25511">
        <ele>499.1</ele>
        <time>2023-10-13T10:31:15Z</time>
      </trkpt>
      <trkpt lat="48.67273" lon="7.25492">
        <ele>497.8</ele>
        <time>2023-10-13T10:31:23Z</time>
      </trkpt>
      <trkpt lat="48.67287" lon="7.25474">
        <ele>496.5</ele>
        <time>2023-10-13T10:31:30Z</time>
      </trkpt>
      <trkpt lat="48.67298" lon="7.2545">
        <ele>495.2</ele>
        <time>2023-10-13T10:31:37Z</time>
      </trkpt>
      <trkpt lat="48.67308" lon="7.25427">
        <ele>494.2</ele>
        <time>2023-10-13T10:31:44Z</time>
      </trkpt>
      <trkpt lat="48.67301" lon="7.2541">
        <ele>493.6</ele>
        <time>2023-10-13T10:31:50Z</time>
      </trkpt>
      <trkpt lat="48.67301" lon="7.25403">
        <ele>493.4</ele>
        <time>2023-10-13T10:32:08Z</time>
      </trkpt>
      <trkpt lat="48.67302" lon="7.25402">
        <ele>493.4</ele>
        <time>2023-10-13T10:32:09Z</time>
      </trkpt>
      <trkpt lat="48.67312" lon="7.25378">
        <ele>492.5</ele>
        <time>2023-10-13T10:32:18Z</time>
      </trkpt>
      <trkpt lat="48.67317" lon="7.25352">
        <ele>491.4</ele>
        <time>2023-10-13T10:32:27Z</time>
      </trkpt>
      <trkpt lat="48.67325" lon="7.25328">
        <ele>489.5</ele>
        <time>2023-10-13T10:32:36Z</time>
      </trkpt>
      <trkpt lat="48.67338" lon="7.25307">
        <ele>488.1</ele>
        <time>2023-10-13T10:32:46Z</time>
      </trkpt>
      <trkpt lat="48.67351" lon="7.25285">
        <ele>486.2</ele>
        <time>2023-10-13T10:32:57Z</time>
      </trkpt>
      <trkpt lat="48.67362" lon="7.25262">
        <ele>484.5</ele>
        <time>2023-10-13T10:33:05Z</time>
      </trkpt>
      <trkpt lat="48.67376" lon="7.25241">
        <ele>483.4</ele>
        <time>2023-10-13T10:33:15Z</time>
      </trkpt>
      <trkpt lat="48.6739" lon="7.2522">
        <ele>483</ele>
        <time>2023-10-13T10:33:28Z</time>
      </trkpt>
      <trkpt lat="48.67401" lon="7.25195">
        <ele>482.7</ele>
        <time>2023-10-13T10:33:37Z</time>
      </trkpt>
      <trkpt lat="48.67412" lon="7.2517">
        <ele>482</ele>
        <time>2023-10-13T10:33:46Z</time>
      </trkpt>
      <trkpt lat="48.67425" lon="7.25149">
        <ele>480.7</ele>
        <time>2023-10-13T10:33:53Z</time>
      </trkpt>
      <trkpt lat="48.6744" lon="7.25134">
        <ele>479.5</ele>
        <time>2023-10-13T10:34:00Z</time>
      </trkpt>
      <trkpt lat="48.67456" lon="7.2512">
        <ele>478.5</ele>
        <time>2023-10-13T10:34:08Z</time>
      </trkpt>
      <trkpt lat="48.67472" lon="7.25106">
        <ele>477.2</ele>
        <time>2023-10-13T10:34:19Z</time>
      </trkpt>
      <trkpt lat="48.67485" lon="7.25085">
        <ele>475.8</ele>
        <time>2023-10-13T10:34:28Z</time>
      </trkpt>
      <trkpt lat="48.67499" lon="7.25064">
        <ele>474.9</ele>
        <time>2023-10-13T10:34:39Z</time>
      </trkpt>
      <trkpt lat="48.67511" lon="7.25041">
        <ele>474.8</ele>
        <time>2023-10-13T10:34:51Z</time>
      </trkpt>
      <trkpt lat="48.67523" lon="7.25018">
        <ele>474.9</ele>
        <time>2023-10-13T10:35:02Z</time>
      </trkpt>
      <trkpt lat="48.67536" lon="7.24995">
        <ele>474.1</ele>
        <time>2023-10-13T10:35:10Z</time>
      </trkpt>
      <trkpt lat="48.67553" lon="7.2498">
        <ele>471.8</ele>
        <time>2023-10-13T10:35:17Z</time>
      </trkpt>
      <trkpt lat="48.6757" lon="7.24985">
        <ele>470.1</ele>
        <time>2023-10-13T10:35:26Z</time>
      </trkpt>
      <trkpt lat="48.6757" lon="7.24991">
        <ele>470.1</ele>
        <time>2023-10-13T10:35:28Z</time>
      </trkpt>
      <trkpt lat="48.67566" lon="7.25019">
        <ele>471.8</ele>
        <time>2023-10-13T10:35:38Z</time>
      </trkpt>
      <trkpt lat="48.67564" lon="7.25048">
        <ele>473.8</ele>
        <time>2023-10-13T10:35:48Z</time>
      </trkpt>
      <trkpt lat="48.67562" lon="7.25052">
        <ele>474.1</ele>
        <time>2023-10-13T10:35:50Z</time>
      </trkpt>
      <trkpt lat="48.67558" lon="7.25054">
        <ele>474.4</ele>
        <time>2023-10-13T10:35:53Z</time>
      </trkpt>
      <trkpt lat="48.67556" lon="7.25052">
        <ele>474.5</ele>
        <time>2023-10-13T10:35:55Z</time>
      </trkpt>
      <trkpt lat="48.67547" lon="7.25044">
        <ele>474.9</ele>
        <time>2023-10-13T10:36:03Z</time>
      </trkpt>
      <trkpt lat="48.67535" lon="7.25025">
        <ele>474.9</ele>
        <time>2023-10-13T10:36:14Z</time>
      </trkpt>
      <trkpt lat="48.67517" lon="7.25034">
        <ele>474.8</ele>
        <time>2023-10-13T10:36:23Z</time>
      </trkpt>
      <trkpt lat="48.67507" lon="7.2505">
        <ele>474.9</ele>
        <time>2023-10-13T10:36:32Z</time>
      </trkpt>
      <trkpt lat="48.67504" lon="7.25053">
        <ele>475</ele>
        <time>2023-10-13T10:36:34Z</time>
      </trkpt>
      <trkpt lat="48.67492" lon="7.25075">
        <ele>475.8</ele>
        <time>2023-10-13T10:36:45Z</time>
      </trkpt>
      <trkpt lat="48.67478" lon="7.25095">
        <ele>477.1</ele>
        <time>2023-10-13T10:36:55Z</time>
      </trkpt>
      <trkpt lat="48.67467" lon="7.25115">
        <ele>478.2</ele>
        <time>2023-10-13T10:37:07Z</time>
      </trkpt>
      <trkpt lat="48.6745" lon="7.25127">
        <ele>479.2</ele>
        <time>2023-10-13T10:37:18Z</time>
      </trkpt>
      <trkpt lat="48.67434" lon="7.25141">
        <ele>480.1</ele>
        <time>2023-10-13T10:37:25Z</time>
      </trkpt>
      <trkpt lat="48.67421" lon="7.25161">
        <ele>481.2</ele>
        <time>2023-10-13T10:37:36Z</time>
      </trkpt>
      <trkpt lat="48.67409" lon="7.25182">
        <ele>482.3</ele>
        <time>2023-10-13T10:37:46Z</time>
      </trkpt>
      <trkpt lat="48.67399" lon="7.25206">
        <ele>482.8</ele>
        <time>2023-10-13T10:37:54Z</time>
      </trkpt>
      <trkpt lat="48.67395" lon="7.2522">
        <ele>482.9</ele>
        <time>2023-10-13T10:37:59Z</time>
      </trkpt>
      <trkpt lat="48.67403" lon="7.25248">
        <ele>484.3</ele>
        <time>2023-10-13T10:38:09Z</time>
      </trkpt>
      <trkpt lat="48.67404" lon="7.25257">
        <ele>484.8</ele>
        <time>2023-10-13T10:38:12Z</time>
      </trkpt>
      <trkpt lat="48.67402" lon="7.25265">
        <ele>485.1</ele>
        <time>2023-10-13T10:38:15Z</time>
      </trkpt>
      <trkpt lat="48.67389" lon="7.25287">
        <ele>485.7</ele>
        <time>2023-10-13T10:38:23Z</time>
      </trkpt>
      <trkpt lat="48.67376" lon="7.25309">
        <ele>485.9</ele>
        <time>2023-10-13T10:38:33Z</time>
      </trkpt>
      <trkpt lat="48.67365" lon="7.25333">
        <ele>487.1</ele>
        <time>2023-10-13T10:38:43Z</time>
      </trkpt>
      <trkpt lat="48.67358" lon="7.25359">
        <ele>487.6</ele>
        <time>2023-10-13T10:38:55Z</time>
      </trkpt>
      <trkpt lat="48.67345" lon="7.25382">
        <ele>489.3</ele>
        <time>2023-10-13T10:39:06Z</time>
      </trkpt>
      <trkpt lat="48.67331" lon="7.25406">
        <ele>490.5</ele>
        <time>2023-10-13T10:39:14Z</time>
      </trkpt>
      <trkpt lat="48.67316" lon="7.25421">
        <ele>492.6</ele>
        <time>2023-10-13T10:39:21Z</time>
      </trkpt>
      <trkpt lat="48.6731" lon="7.25449">
        <ele>491.2</ele>
        <time>2023-10-13T10:39:29Z</time>
      </trkpt>
      <trkpt lat="48.67306" lon="7.25479">
        <ele>489.5</ele>
        <time>2023-10-13T10:39:38Z</time>
      </trkpt>
      <trkpt lat="48.67305" lon="7.25498">
        <ele>488.4</ele>
        <time>2023-10-13T10:39:47Z</time>
      </trkpt>
      <trkpt lat="48.67308" lon="7.2547">
        <ele>490</ele>
        <time>2023-10-13T10:39:57Z</time>
      </trkpt>
      <trkpt lat="48.6731" lon="7.25442">
        <ele>491.6</ele>
        <time>2023-10-13T10:40:07Z</time>
      </trkpt>
      <trkpt lat="48.67306" lon="7.25415">
        <ele>492.8</ele>
        <time>2023-10-13T10:40:16Z</time>
      </trkpt>
      <trkpt lat="48.67303" lon="7.25411">
        <ele>493</ele>
        <time>2023-10-13T10:40:18Z</time>
      </trkpt>
    </trkseg>
  </trk>
</gpx>